EJU45PK EHAM-LPMA
Flight info
| Callsign | EJU45PK |
|---|---|
| Flight time | N/A |
| Altitude | 23000 |
| Route | WOODY3W WOODY N872 CIV/N0442F350 N872 MEDIL UN872 ERIGA UN741 AZFIC DCT LOTEE/N0450F370 DCT AGADO DCT ASMAR DCT VERAM DCT LIDRO LIDRO1P |
| Aircraft | A320/M-SDE3FGHIRWY/LB1 |
Departure
| Time | 2026-05-04 11:57 |
|---|---|
| Airport | Amsterdam Airport Schiphol (EHAM) |
Arrival
| Time | N/A |
|---|---|
| Airport | Cristiano Ronaldo International Airport (LPMA) |
| Time | Latitude | Longitude | Altitude | Speed | Heading |
|---|---|---|---|---|---|
| 2026-05-04 10:39 | 52.31069 | 4.75569 | -1 ft | 0 kts | 148° |
| 2026-05-04 11:42 | 52.31071 | 4.75567 | -1 ft | 3 kts | 148° |
| 2026-05-04 11:42 | 52.31094 | 4.75546 | -1 ft | 4 kts | 148° |
| 2026-05-04 11:42 | 52.31110 | 4.75523 | -1 ft | 4 kts | 70° |
| 2026-05-04 11:43 | 52.31099 | 4.75487 | -1 ft | 4 kts | 54° |
| 2026-05-04 11:43 | 52.31092 | 4.75471 | -1 ft | 0 kts | 58° |
| 2026-05-04 11:46 | 52.31118 | 4.75500 | -1 ft | 8 kts | 14° |
| 2026-05-04 11:46 | 52.31169 | 4.75495 | -1 ft | 8 kts | 356° |
| 2026-05-04 11:46 | 52.31221 | 4.75490 | -1 ft | 7 kts | 356° |
| 2026-05-04 11:46 | 52.31271 | 4.75485 | -1 ft | 8 kts | 356° |
| 2026-05-04 11:47 | 52.31329 | 4.75480 | -1 ft | 10 kts | 357° |
| 2026-05-04 11:47 | 52.31401 | 4.75475 | -1 ft | 10 kts | 6° |
| 2026-05-04 11:47 | 52.31430 | 4.75579 | -1 ft | 12 kts | 86° |
| 2026-05-04 11:47 | 52.31436 | 4.75719 | -1 ft | 11 kts | 86° |
| 2026-05-04 11:48 | 52.31441 | 4.75838 | -1 ft | 9 kts | 86° |
| 2026-05-04 11:48 | 52.31445 | 4.75942 | -1 ft | 11 kts | 86° |
| 2026-05-04 11:48 | 52.31450 | 4.76077 | -1 ft | 11 kts | 86° |
| 2026-05-04 11:48 | 52.31454 | 4.76212 | -1 ft | 13 kts | 86° |
| 2026-05-04 11:49 | 52.31460 | 4.76355 | -1 ft | 12 kts | 86° |
| 2026-05-04 11:49 | 52.31464 | 4.76476 | -1 ft | 11 kts | 87° |
| 2026-05-04 11:49 | 52.31468 | 4.76614 | -1 ft | 12 kts | 87° |
| 2026-05-04 11:49 | 52.31472 | 4.76737 | -1 ft | 10 kts | 87° |
| 2026-05-04 11:50 | 52.31476 | 4.76841 | -1 ft | 9 kts | 87° |
| 2026-05-04 11:50 | 52.31481 | 4.76987 | -1 ft | 15 kts | 86° |
| 2026-05-04 11:50 | 52.31477 | 4.77145 | -1 ft | 13 kts | 111° |
| 2026-05-04 11:50 | 52.31421 | 4.77268 | -1 ft | 13 kts | 130° |
| 2026-05-04 11:51 | 52.31365 | 4.77375 | -1 ft | 11 kts | 130° |
| 2026-05-04 11:51 | 52.31312 | 4.77467 | -1 ft | 12 kts | 142° |
| 2026-05-04 11:51 | 52.31225 | 4.77503 | -1 ft | 13 kts | 182° |
| 2026-05-04 11:51 | 52.31139 | 4.77496 | -1 ft | 11 kts | 182° |
| 2026-05-04 11:52 | 52.31060 | 4.77489 | -1 ft | 12 kts | 183° |
| 2026-05-04 11:52 | 52.30970 | 4.77481 | -1 ft | 13 kts | 183° |
| 2026-05-04 11:52 | 52.30886 | 4.77473 | -1 ft | 13 kts | 183° |
| 2026-05-04 11:52 | 52.30792 | 4.77465 | -1 ft | 13 kts | 183° |
| 2026-05-04 11:53 | 52.30710 | 4.77457 | -1 ft | 11 kts | 183° |
| 2026-05-04 11:53 | 52.30643 | 4.77480 | -1 ft | 9 kts | 154° |
| 2026-05-04 11:53 | 52.30592 | 4.77522 | -1 ft | 8 kts | 153° |
| 2026-05-04 11:53 | 52.30552 | 4.77556 | -1 ft | 5 kts | 152° |
| 2026-05-04 11:55 | 52.30447 | 4.77647 | -1 ft | 4 kts | 152° |
| 2026-05-04 11:55 | 52.30420 | 4.77647 | -1 ft | 6 kts | 208° |
| 2026-05-04 11:56 | 52.30403 | 4.77608 | -2 ft | 0 kts | 238° |
| 2026-05-04 11:56 | 52.30391 | 4.77576 | -2 ft | 17 kts | 238° |
| 2026-05-04 11:56 | 52.30185 | 4.77036 | -3 ft | 90 kts | 238° |
| 2026-05-04 11:57 | 52.29747 | 4.75896 | -2 ft | 144 kts | 238° |
| 2026-05-04 11:57 | 52.29135 | 4.74302 | 29 ft | 184 kts | 238° |
| 2026-05-04 11:57 | 52.28472 | 4.72576 | 738 ft | 179 kts | 239° |
| 2026-05-04 11:57 | 52.27806 | 4.70844 | 1506 ft | 178 kts | 238° |
| 2026-05-04 11:58 | 52.27075 | 4.69059 | 1844 ft | 200 kts | 229° |
| 2026-05-04 11:58 | 52.25940 | 4.67736 | 2174 ft | 220 kts | 201° |
| 2026-05-04 11:58 | 52.24401 | 4.67477 | 2846 ft | 228 kts | 171° |
| 2026-05-04 11:58 | 52.22948 | 4.68509 | 3572 ft | 233 kts | 141° |
| 2026-05-04 11:59 | 52.21825 | 4.70434 | 4330 ft | 235 kts | 136° |
| 2026-05-04 11:59 | 52.20530 | 4.72060 | 5091 ft | 237 kts | 153° |
| 2026-05-04 11:59 | 52.19032 | 4.73276 | 5847 ft | 239 kts | 155° |
| 2026-05-04 11:59 | 52.17537 | 4.74425 | 6555 ft | 242 kts | 160° |
| 2026-05-04 12:00 | 52.15876 | 4.75209 | 6972 ft | 260 kts | 167° |
| 2026-05-04 12:00 | 52.14063 | 4.75918 | 7427 ft | 274 kts | 168° |
| 2026-05-04 12:00 | 52.12182 | 4.76638 | 8152 ft | 279 kts | 168° |
| 2026-05-04 12:00 | 52.10282 | 4.77363 | 8912 ft | 282 kts | 168° |
| 2026-05-04 12:01 | 52.08360 | 4.78097 | 9699 ft | 286 kts | 168° |
| 2026-05-04 12:01 | 52.06397 | 4.78848 | 10249 ft | 297 kts | 168° |
| 2026-05-04 12:02 | 51.93130 | 4.77299 | 13464 ft | 344 kts | 207° |
| 2026-05-04 12:03 | 51.91066 | 4.75665 | 14081 ft | 347 kts | 207° |
| 2026-05-04 12:03 | 51.88889 | 4.73951 | 14662 ft | 349 kts | 207° |
| 2026-05-04 12:03 | 51.86712 | 4.72248 | 15251 ft | 352 kts | 207° |
| 2026-05-04 12:03 | 51.84490 | 4.70522 | 15848 ft | 355 kts | 206° |
| 2026-05-04 12:04 | 51.82251 | 4.68790 | 16427 ft | 358 kts | 206° |
| 2026-05-04 12:04 | 51.79994 | 4.67039 | 17004 ft | 361 kts | 206° |
| 2026-05-04 12:04 | 51.77720 | 4.65271 | 17582 ft | 364 kts | 207° |
| 2026-05-04 12:04 | 51.75426 | 4.63489 | 18151 ft | 367 kts | 206° |
| 2026-05-04 12:05 | 51.73113 | 4.61698 | 18687 ft | 370 kts | 206° |
| 2026-05-04 12:05 | 51.70782 | 4.59896 | 19193 ft | 372 kts | 206° |
| 2026-05-04 12:05 | 51.68448 | 4.58091 | 19709 ft | 373 kts | 206° |